Current Weather

Chicago Midway Intl

Chicago, Illinois (KMDW)

Report from: Friday, February 3, 2023 10:53 PM CST
Current time: Friday, February 3, 2023 11:41 PM CST

Nearby weather
Weather history
Weather forecast

Temperature-11.7°C (10.9°F)
Wind chill-17.0°C (1.4°F)
Dew point-20.0°C (-4.0°F)
Winds 5 kts (2.6 m/s, 5.8 mph) South-Southeast (160°)
Visibility10 mi. (16.1 km)
Clouds Scattered clouds 16,000 ft. (4,877 m)
Ceiling: Broken clouds 20,000 ft. (6,096 m)
Altimeter30.48 in.Hg (1032 mB)
Relative humidity50 %
Density altitude-3,974 ft. (-1,211 m)
Sea-level pressure103.5 kPa (1035 mB, 30.55 in.Hg)
Remarks Automated weather observing station with precipitation discriminator
Flight conditions Visual Meteorological Conditions
Raw dataKMDW 040453Z 16005KT 10SM SCT160 BKN200 M12/M20 A3048 RMK AO2 SLP345 T11171200
An unhandled exception has occurred. See browser dev tools for details. Reload 🗙